createdAt,value
2018-12-24T00:00:45.210Z,21.83
2018-12-24T00:01:45.200Z,21.83
2018-12-24T00:02:45.183Z,21.86
2018-12-24T00:03:45.172Z,21.79
2018-12-24T00:04:45.190Z,21.83
2018-12-24T00:05:45.152Z,21.80
2018-12-24T00:06:45.149Z,21.88
2018-12-24T00:07:45.153Z,21.80
2018-12-24T00:08:45.155Z,21.83
2018-12-24T00:09:45.129Z,21.84
2018-12-24T00:10:45.096Z,21.82
2018-12-24T00:11:45.996Z,21.84
2018-12-24T00:12:45.075Z,21.82
2018-12-24T00:13:45.074Z,21.83
2018-12-24T00:14:45.091Z,21.84
2018-12-24T00:15:45.074Z,21.91
2018-12-24T00:16:45.989Z,21.86
2018-12-24T00:17:45.027Z,21.83
2018-12-24T00:18:45.981Z,21.83
2018-12-24T00:19:45.004Z,21.82
2018-12-24T00:20:45.010Z,21.91
2018-12-24T00:21:44.987Z,21.83
2018-12-24T00:22:44.964Z,21.86
2018-12-24T00:23:44.964Z,21.82
2018-12-24T00:24:44.953Z,21.88
2018-12-24T00:25:44.954Z,21.86
2018-12-24T00:26:44.924Z,21.83
2018-12-24T00:27:44.916Z,21.86
2018-12-24T00:28:44.899Z,21.80
2018-12-24T00:29:44.887Z,21.80
2018-12-24T00:30:44.897Z,21.83
2018-12-24T00:31:45.492Z,21.82
2018-12-24T00:32:45.484Z,21.82
2018-12-24T00:33:44.966Z,21.82
2018-12-24T00:34:45.478Z,21.86
2018-12-24T00:35:44.841Z,21.86
2018-12-24T00:36:44.858Z,21.80
2018-12-24T00:37:44.801Z,21.83
2018-12-24T00:38:44.796Z,21.83
2018-12-24T00:39:44.783Z,21.83
2018-12-24T00:40:45.006Z,21.83
2018-12-24T00:41:45.484Z,21.82
2018-12-24T00:42:44.750Z,21.88
2018-12-24T00:43:44.751Z,21.84
2018-12-24T00:44:45.481Z,21.91
2018-12-24T00:45:45.023Z,21.84
2018-12-24T00:46:44.714Z,21.86
2018-12-24T00:47:44.703Z,21.83
2018-12-24T00:48:45.479Z,21.88
2018-12-24T00:49:44.689Z,21.84
2018-12-24T00:50:45.122Z,21.90
2018-12-24T00:51:44.652Z,21.84
2018-12-24T00:52:45.486Z,21.82
2018-12-24T00:53:45.491Z,21.86
2018-12-24T00:54:44.652Z,21.80
2018-12-24T00:55:45.006Z,21.80
2018-12-24T00:56:44.599Z,21.83
2018-12-24T00:57:44.596Z,21.84
2018-12-24T00:58:44.591Z,21.80
2018-12-24T00:59:44.570Z,21.86
2018-12-24T01:00:44.580Z,21.82
2018-12-24T01:01:44.545Z,21.82
2018-12-24T01:02:44.534Z,21.84
2018-12-24T01:03:44.524Z,21.84
2018-12-24T01:04:45.479Z,21.83
2018-12-24T01:05:44.524Z,21.80
2018-12-24T01:06:44.488Z,21.86
2018-12-24T01:07:44.487Z,21.86
2018-12-24T01:08:44.475Z,21.84
2018-12-24T01:09:45.100Z,21.86
2018-12-24T01:10:44.486Z,21.86
2018-12-24T01:11:44.436Z,21.82
2018-12-24T01:12:44.437Z,21.90
2018-12-24T01:13:44.408Z,21.79
2018-12-24T01:14:44.404Z,21.86
2018-12-24T01:15:44.512Z,21.86
2018-12-24T01:16:44.394Z,21.86
2018-12-24T01:17:44.366Z,21.84
2018-12-24T01:18:44.357Z,21.84
2018-12-24T01:19:44.375Z,21.80
2018-12-24T01:20:44.355Z,21.88
2018-12-24T01:21:44.327Z,21.83
2018-12-24T01:22:44.323Z,21.86
2018-12-24T01:23:44.313Z,21.83
2018-12-24T01:24:44.294Z,21.84
2018-12-24T01:25:44.295Z,21.83
2018-12-24T01:26:44.297Z,21.90
2018-12-24T01:27:44.261Z,21.80
2018-12-24T01:28:44.259Z,21.80
2018-12-24T01:29:44.289Z,21.84
2018-12-24T01:30:44.510Z,21.84
2018-12-24T01:31:44.222Z,21.86
2018-12-24T01:32:44.216Z,21.88
2018-12-24T01:33:44.195Z,21.83
2018-12-24T01:34:44.189Z,21.77
2018-12-24T01:35:44.190Z,21.82
2018-12-24T01:36:44.165Z,21.83
2018-12-24T01:37:44.986Z,21.82
2018-12-24T01:38:44.159Z,21.84
2018-12-24T01:39:44.142Z,21.82
2018-12-24T01:40:44.147Z,21.84
2018-12-24T01:41:44.139Z,21.82
2018-12-24T01:42:44.094Z,21.83
2018-12-24T01:43:44.084Z,21.83
2018-12-24T01:44:45.002Z,21.83
2018-12-24T01:45:44.095Z,21.83
2018-12-24T01:46:44.059Z,21.84
2018-12-24T01:47:44.045Z,21.86
2018-12-24T01:48:44.049Z,21.83
2018-12-24T01:49:44.028Z,21.80
2018-12-24T01:50:44.504Z,21.80
2018-12-24T01:51:43.995Z,21.82
2018-12-24T01:52:43.989Z,21.83
2018-12-24T01:53:43.972Z,21.80
2018-12-24T01:54:43.960Z,21.88
2018-12-24T01:55:44.019Z,21.80
2018-12-24T01:56:43.954Z,21.88
2018-12-24T01:57:43.927Z,21.82
2018-12-24T01:58:43.925Z,21.86
2018-12-24T01:59:43.907Z,21.86
2018-12-24T02:00:43.918Z,21.80
2018-12-24T02:01:44.507Z,21.83
2018-12-24T02:02:43.895Z,21.86
2018-12-24T02:03:43.876Z,21.82
2018-12-24T02:04:43.872Z,21.80
2018-12-24T02:05:44.003Z,21.83
2018-12-24T02:06:43.828Z,21.84
2018-12-24T02:07:43.840Z,21.82
2018-12-24T02:08:43.808Z,21.82
2018-12-24T02:09:43.801Z,21.79
2018-12-24T02:10:43.825Z,21.88
2018-12-24T02:11:43.774Z,21.90
2018-12-24T02:12:44.485Z,21.83
2018-12-24T02:13:43.786Z,21.82
2018-12-24T02:14:43.744Z,21.80
2018-12-24T02:15:43.751Z,21.86
2018-12-24T02:16:43.720Z,21.82
2018-12-24T02:17:43.706Z,21.83
2018-12-24T02:18:44.489Z,21.83
2018-12-24T02:19:43.689Z,21.86
2018-12-24T02:20:43.996Z,21.77
2018-12-24T02:21:43.670Z,21.86
2018-12-24T02:22:44.485Z,21.86
2018-12-24T02:23:43.641Z,21.80
2018-12-24T02:24:43.640Z,21.86
2018-12-24T02:25:43.625Z,21.84
2018-12-24T02:26:43.655Z,21.82
2018-12-24T02:27:43.597Z,21.86
2018-12-24T02:28:43.637Z,21.80
2018-12-24T02:29:43.578Z,21.82
2018-12-24T02:30:43.572Z,21.83
2018-12-24T02:31:43.581Z,21.80
2018-12-24T02:32:43.544Z,21.86
2018-12-24T02:33:43.534Z,21.83
2018-12-24T02:34:43.539Z,21.86
2018-12-24T02:35:44.486Z,21.83
2018-12-24T02:36:43.539Z,21.82
2018-12-24T02:37:43.489Z,21.83
2018-12-24T02:38:43.479Z,21.80
2018-12-24T02:39:43.466Z,21.90
2018-12-24T02:40:43.989Z,21.83
2018-12-24T02:41:43.461Z,21.86
2018-12-24T02:42:52.096Z,21.83
2018-12-24T02:43:43.428Z,21.84
2018-12-24T02:44:43.420Z,21.80
2018-12-24T02:45:43.404Z,21.86
2018-12-24T02:46:43.407Z,21.86
2018-12-24T02:47:43.380Z,21.83
2018-12-24T02:48:43.370Z,21.86
2018-12-24T02:49:43.368Z,21.86
2018-12-24T02:50:43.346Z,21.77
2018-12-24T02:51:43.350Z,21.79
2018-12-24T02:52:43.985Z,21.80
2018-12-24T02:53:43.345Z,21.83
2018-12-24T02:54:43.302Z,21.83
2018-12-24T02:55:43.295Z,21.82
2018-12-24T02:56:43.294Z,21.77
2018-12-24T02:57:43.989Z,21.86
2018-12-24T02:58:43.266Z,21.84
2018-12-24T02:59:43.245Z,21.82
2018-12-24T03:00:44.007Z,21.83
2018-12-24T03:01:43.251Z,21.86
2018-12-24T03:02:43.242Z,21.91
2018-12-24T03:03:43.207Z,21.79
2018-12-24T03:04:43.984Z,21.84
2018-12-24T03:05:43.206Z,21.83
2018-12-24T03:06:43.499Z,21.82
2018-12-24T03:07:43.160Z,21.80
2018-12-24T03:08:43.152Z,21.86
2018-12-24T03:09:43.988Z,21.82
2018-12-24T03:10:43.130Z,21.88
2018-12-24T03:11:43.159Z,21.84
2018-12-24T03:12:43.102Z,21.80
2018-12-24T03:13:43.098Z,21.84
2018-12-24T03:14:43.989Z,21.84
2018-12-24T03:15:43.172Z,21.90
2018-12-24T03:16:43.096Z,21.82
2018-12-24T03:17:43.059Z,21.83
2018-12-24T03:18:43.040Z,21.83
2018-12-24T03:19:43.031Z,21.80
2018-12-24T03:20:43.015Z,21.86
2018-12-24T03:21:43.032Z,21.83
2018-12-24T03:22:42.996Z,21.83
2018-12-24T03:23:43.486Z,21.83
2018-12-24T03:24:42.975Z,21.86
2018-12-24T03:25:42.969Z,21.90
2018-12-24T03:26:43.008Z,21.84
2018-12-24T03:27:43.487Z,21.84
2018-12-24T03:28:42.946Z,21.83
2018-12-24T03:29:43.487Z,21.83
2018-12-24T03:30:42.937Z,21.83
2018-12-24T03:31:42.919Z,21.86
2018-12-24T03:32:42.890Z,21.90
2018-12-24T03:33:43.493Z,21.88
2018-12-24T03:34:42.915Z,21.86
2018-12-24T03:35:43.522Z,21.83
2018-12-24T03:36:42.858Z,21.83
2018-12-24T03:37:42.837Z,21.79
2018-12-24T03:38:42.830Z,21.82
2018-12-24T03:39:42.814Z,21.83
2018-12-24T03:40:43.490Z,21.88
2018-12-24T03:41:42.816Z,21.86
2018-12-24T03:42:43.490Z,21.88
2018-12-24T03:43:43.488Z,21.82
2018-12-24T03:44:43.494Z,21.90
2018-12-24T03:45:42.813Z,21.88
2018-12-24T03:46:42.744Z,21.83
2018-12-24T03:47:42.723Z,21.86
2018-12-24T03:48:42.710Z,21.86
2018-12-24T03:49:42.733Z,21.90
2018-12-24T03:50:42.744Z,21.86
2018-12-24T03:51:42.721Z,21.91
2018-12-24T03:52:42.680Z,21.79
2018-12-24T03:53:42.656Z,21.86
2018-12-24T03:54:42.664Z,21.90
2018-12-24T03:55:43.495Z,21.83
2018-12-24T03:56:43.012Z,21.82
2018-12-24T03:57:42.627Z,21.80
2018-12-24T03:58:42.617Z,21.92
2018-12-24T03:59:42.589Z,21.91
2018-12-24T04:00:43.491Z,21.83
2018-12-24T04:01:42.857Z,21.91
2018-12-24T04:02:42.589Z,21.91
2018-12-24T04:03:43.514Z,21.96
2018-12-24T04:04:42.544Z,21.86
2018-12-24T04:05:43.490Z,21.90
2018-12-24T04:06:42.525Z,21.79
2018-12-24T04:07:42.527Z,21.88
2018-12-24T04:08:42.541Z,21.88
2018-12-24T04:09:42.484Z,21.96
2018-12-24T04:10:42.989Z,21.96
2018-12-24T04:11:42.469Z,21.91
2018-12-24T04:12:42.990Z,21.88
2018-12-24T04:13:42.460Z,21.94
2018-12-24T04:14:42.521Z,21.82
2018-12-24T04:15:42.417Z,21.96
2018-12-24T04:16:42.427Z,21.98
2018-12-24T04:17:43.000Z,21.91
2018-12-24T04:18:42.388Z,21.91
2018-12-24T04:19:42.378Z,21.99
2018-12-24T04:20:42.391Z,21.83
2018-12-24T04:21:42.507Z,21.83
2018-12-24T04:22:42.343Z,21.96
2018-12-24T04:23:42.329Z,21.91
2018-12-24T04:24:42.340Z,21.86
2018-12-24T04:25:42.321Z,21.80
2018-12-24T04:26:42.462Z,21.90
2018-12-24T04:27:42.377Z,21.96
2018-12-24T04:28:42.278Z,21.82
2018-12-24T04:29:42.264Z,21.98
2018-12-24T04:30:43.030Z,21.90
2018-12-24T04:31:42.267Z,21.88
2018-12-24T04:32:42.241Z,21.84
2018-12-24T04:33:42.223Z,21.86
2018-12-24T04:34:42.208Z,21.88
2018-12-24T04:35:42.209Z,21.80
2018-12-24T04:36:43.010Z,21.88
2018-12-24T04:37:42.195Z,21.96
2018-12-24T04:38:42.165Z,21.98
2018-12-24T04:39:42.155Z,21.90
2018-12-24T04:40:43.015Z,21.91
2018-12-24T04:41:42.150Z,21.83
2018-12-24T04:42:42.504Z,21.96
2018-12-24T04:43:42.142Z,21.88
2018-12-24T04:44:42.110Z,21.90
2018-12-24T04:45:42.993Z,21.86
2018-12-24T04:46:43.002Z,21.90
2018-12-24T04:47:42.506Z,21.83
2018-12-24T04:48:42.069Z,21.96
2018-12-24T04:49:42.045Z,21.91
2018-12-24T04:50:42.043Z,21.96
2018-12-24T04:51:42.021Z,21.80
2018-12-24T04:52:42.520Z,21.83
2018-12-24T04:53:42.995Z,21.91
2018-12-24T04:54:42.499Z,21.84
2018-12-24T04:55:41.982Z,21.83
2018-12-24T04:56:41.980Z,21.83
2018-12-24T04:57:41.991Z,21.86
2018-12-24T04:58:42.491Z,21.99
2018-12-24T04:59:41.951Z,21.86
2018-12-24T05:00:41.935Z,21.94
2018-12-24T05:01:41.917Z,21.92
2018-12-24T05:02:41.929Z,21.91
2018-12-24T05:03:42.501Z,21.90
2018-12-24T05:04:41.883Z,21.90
2018-12-24T05:05:41.890Z,21.90
2018-12-24T05:06:41.860Z,21.86
2018-12-24T05:07:41.868Z,21.83
2018-12-24T05:08:41.841Z,21.92
2018-12-24T05:09:41.830Z,21.88
2018-12-24T05:10:42.495Z,21.92
2018-12-24T05:11:41.837Z,21.92
2018-12-24T05:12:41.819Z,21.79
2018-12-24T05:13:41.786Z,21.99
2018-12-24T05:14:42.494Z,21.83
2018-12-24T05:15:42.496Z,21.96
2018-12-24T05:16:42.502Z,21.96
2018-12-24T05:17:41.822Z,21.83
2018-12-24T05:18:41.727Z,21.75
2018-12-24T05:19:41.718Z,21.91
2018-12-24T05:20:42.520Z,21.91
2018-12-24T05:21:42.534Z,21.91
2018-12-24T05:22:42.032Z,21.84
2018-12-24T05:23:41.675Z,21.96
2018-12-24T05:24:41.665Z,21.90
2018-12-24T05:25:41.654Z,21.90
2018-12-24T05:26:41.717Z,21.99
2018-12-24T05:27:42.030Z,21.94
2018-12-24T05:28:41.647Z,21.88
2018-12-24T05:29:41.608Z,21.82
2018-12-24T05:30:41.600Z,21.88
2018-12-24T05:31:41.603Z,21.86
2018-12-24T05:32:42.013Z,21.86
2018-12-24T05:33:41.605Z,21.92
2018-12-24T05:34:41.562Z,21.90
2018-12-24T05:35:41.544Z,21.90
2018-12-24T05:36:41.536Z,21.90
2018-12-24T05:37:41.556Z,21.90
2018-12-24T05:38:41.522Z,21.90
2018-12-24T05:39:41.503Z,21.90
2018-12-24T05:40:41.505Z,21.83
2018-12-24T05:41:41.479Z,21.86
2018-12-24T05:42:41.512Z,21.88
2018-12-24T05:43:49.225Z,21.90
2018-12-24T05:44:41.462Z,21.96
2018-12-24T05:45:41.461Z,21.96
2018-12-24T05:46:41.422Z,21.98
2018-12-24T05:47:41.434Z,21.91
2018-12-24T05:48:41.410Z,21.91
2018-12-24T05:49:41.408Z,21.88
2018-12-24T05:50:41.388Z,21.96
2018-12-24T05:51:41.372Z,21.90
2018-12-24T05:52:41.390Z,21.91
2018-12-24T05:53:41.346Z,21.84
2018-12-24T05:54:41.338Z,21.82
2018-12-24T05:55:41.335Z,21.82
2018-12-24T05:56:41.316Z,21.90
2018-12-24T05:57:41.319Z,21.80
2018-12-24T05:58:41.999Z,21.84
2018-12-24T05:59:41.288Z,21.86
2018-12-24T06:00:41.995Z,21.83
2018-12-24T06:01:41.264Z,21.86
2018-12-24T06:02:41.307Z,21.79
2018-12-24T06:03:41.241Z,21.90
2018-12-24T06:04:41.228Z,21.96
2018-12-24T06:05:41.213Z,21.94
2018-12-24T06:06:42.008Z,21.86
2018-12-24T06:07:41.519Z,21.90
2018-12-24T06:08:41.256Z,21.84
2018-12-24T06:09:41.173Z,21.90
2018-12-24T06:10:41.998Z,21.79
2018-12-24T06:11:41.997Z,21.88
2018-12-24T06:12:41.509Z,21.88
2018-12-24T06:13:41.156Z,21.80
2018-12-24T06:14:41.114Z,21.83
2018-12-24T06:15:41.104Z,21.84
2018-12-24T06:16:41.094Z,21.88
2018-12-24T06:17:41.510Z,21.82
2018-12-24T06:18:41.074Z,21.88
2018-12-24T06:19:42.024Z,21.86
2018-12-24T06:20:41.068Z,21.90
2018-12-24T06:21:41.039Z,21.86
2018-12-24T06:22:41.048Z,21.86
2018-12-24T06:23:41.999Z,21.90
2018-12-24T06:24:42.007Z,21.88
2018-12-24T06:25:41.007Z,21.84
2018-12-24T06:26:40.984Z,21.88
2018-12-24T06:27:40.992Z,21.91
2018-12-24T06:28:41.497Z,21.88
2018-12-24T06:29:41.499Z,21.86
2018-12-24T06:30:40.968Z,21.84
2018-12-24T06:31:40.932Z,21.88
2018-12-24T06:32:40.927Z,21.84
2018-12-24T06:33:40.946Z,21.82
2018-12-24T06:34:41.502Z,21.88
2018-12-24T06:35:41.512Z,21.86
2018-12-24T06:36:41.517Z,21.88
2018-12-24T06:37:40.862Z,21.84
2018-12-24T06:38:40.879Z,21.86
2018-12-24T06:39:40.842Z,21.79
2018-12-24T06:40:41.497Z,21.79
2018-12-24T06:41:40.863Z,21.86
2018-12-24T06:42:40.814Z,21.86
2018-12-24T06:43:41.019Z,21.83
2018-12-24T06:44:40.790Z,21.86
2018-12-24T06:45:41.504Z,21.88
2018-12-24T06:46:41.501Z,21.84
2018-12-24T06:47:41.510Z,21.92
2018-12-24T06:48:40.762Z,21.83
2018-12-24T06:49:40.759Z,21.86
2018-12-24T06:50:40.721Z,21.88
2018-12-24T06:51:40.731Z,21.84
2018-12-24T06:52:41.530Z,21.80
2018-12-24T06:53:41.040Z,21.83
2018-12-24T06:54:40.703Z,21.90
2018-12-24T06:55:40.664Z,21.90
2018-12-24T06:56:40.654Z,21.82
2018-12-24T06:57:41.501Z,21.86
2018-12-24T06:58:41.026Z,21.86
2018-12-24T06:59:40.639Z,21.79
2018-12-24T07:00:40.614Z,21.84
2018-12-24T07:01:40.603Z,21.84
2018-12-24T07:02:41.503Z,21.91
2018-12-24T07:03:41.014Z,21.90
2018-12-24T07:04:40.576Z,21.86
2018-12-24T07:05:40.562Z,21.86
2018-12-24T07:06:40.546Z,21.88
2018-12-24T07:07:40.553Z,21.88
2018-12-24T07:08:40.542Z,21.80
2018-12-24T07:09:41.524Z,21.84
2018-12-24T07:10:41.021Z,21.86
2018-12-24T07:11:40.490Z,21.90
2018-12-24T07:12:40.481Z,21.83
2018-12-24T07:13:40.524Z,21.90
2018-12-24T07:14:41.033Z,21.88
2018-12-24T07:15:40.451Z,21.88
2018-12-24T07:16:40.999Z,21.77
2018-12-24T07:17:40.435Z,21.83
2018-12-24T07:18:40.517Z,21.83
2018-12-24T07:19:40.432Z,21.86
2018-12-24T07:20:40.392Z,21.79
2018-12-24T07:21:40.395Z,21.84
2018-12-24T07:22:40.396Z,21.92
2018-12-24T07:23:40.385Z,21.90
2018-12-24T07:24:40.348Z,21.88
2018-12-24T07:25:41.026Z,21.79
2018-12-24T07:26:40.340Z,21.84
2018-12-24T07:27:40.344Z,21.79
2018-12-24T07:28:40.353Z,21.86
2018-12-24T07:29:40.292Z,21.90
2018-12-24T07:30:40.286Z,21.83
2018-12-24T07:31:40.276Z,21.90
2018-12-24T07:32:40.266Z,21.90
2018-12-24T07:33:40.286Z,21.88
2018-12-24T07:34:40.273Z,21.84
2018-12-24T07:35:40.230Z,21.86
2018-12-24T07:36:40.219Z,21.90
2018-12-24T07:37:40.209Z,21.91
2018-12-24T07:38:40.222Z,21.92
2018-12-24T07:39:40.196Z,21.90
2018-12-24T07:40:40.178Z,21.86
2018-12-24T07:41:41.004Z,21.86
2018-12-24T07:42:40.153Z,21.88
2018-12-24T07:43:40.542Z,21.79
2018-12-24T07:44:40.164Z,21.96
2018-12-24T07:45:41.004Z,21.88
2018-12-24T07:46:40.997Z,21.86
2018-12-24T07:47:40.100Z,21.88
2018-12-24T07:48:40.103Z,21.92
2018-12-24T07:49:40.081Z,21.83
2018-12-24T07:50:40.095Z,21.84
2018-12-24T07:51:41.008Z,21.88
2018-12-24T07:52:40.049Z,21.96
2018-12-24T07:53:40.527Z,21.98
2018-12-24T07:54:40.024Z,21.86
2018-12-24T07:55:40.028Z,21.86
2018-12-24T07:56:40.058Z,21.84
2018-12-24T07:57:39.998Z,21.94
2018-12-24T07:58:40.008Z,21.91
2018-12-24T07:59:39.971Z,21.92
2018-12-24T08:00:39.953Z,21.86
2018-12-24T08:01:39.944Z,21.82
2018-12-24T08:02:39.937Z,21.96
2018-12-24T08:03:40.030Z,21.88
2018-12-24T08:04:39.916Z,21.82
2018-12-24T08:05:39.901Z,21.94
2018-12-24T08:06:40.502Z,21.94
2018-12-24T08:07:40.506Z,21.91
2018-12-24T08:08:40.051Z,21.96
2018-12-24T08:09:39.859Z,21.80
2018-12-24T08:10:40.519Z,21.98
2018-12-24T08:11:39.839Z,21.96
2018-12-24T08:12:39.828Z,21.99
2018-12-24T08:13:40.028Z,21.88
2018-12-24T08:14:40.505Z,21.91
2018-12-24T08:15:39.826Z,21.82
2018-12-24T08:16:39.785Z,21.91
2018-12-24T08:17:39.768Z,21.86
2018-12-24T08:18:39.781Z,21.94
2018-12-24T08:19:39.764Z,21.96
2018-12-24T08:20:39.770Z,21.92
2018-12-24T08:21:39.725Z,21.91
2018-12-24T08:22:40.534Z,21.86
2018-12-24T08:23:39.731Z,21.96
2018-12-24T08:24:40.508Z,21.82
2018-12-24T08:25:39.698Z,21.88
2018-12-24T08:26:39.725Z,21.98
2018-12-24T08:27:39.658Z,21.91
2018-12-24T08:28:40.042Z,21.86
2018-12-24T08:29:39.642Z,21.82
2018-12-24T08:30:40.507Z,21.90
2018-12-24T08:31:39.623Z,21.94
2018-12-24T08:32:39.611Z,21.96
2018-12-24T08:33:39.605Z,21.90
2018-12-24T08:34:40.525Z,21.94
2018-12-24T08:35:39.572Z,21.96
2018-12-24T08:36:40.520Z,21.90
2018-12-24T08:37:39.548Z,21.88
2018-12-24T08:38:39.578Z,21.94
2018-12-24T08:39:40.509Z,21.98
2018-12-24T08:40:39.515Z,21.91
2018-12-24T08:41:39.536Z,21.90
2018-12-24T08:42:39.505Z,21.94
2018-12-24T08:43:39.511Z,21.98
2018-12-24T08:44:41.911Z,21.91
2018-12-24T08:45:39.474Z,21.90
2018-12-24T08:46:39.471Z,21.91
2018-12-24T08:47:39.443Z,21.91
2018-12-24T08:48:39.426Z,21.92
2018-12-24T08:49:39.453Z,21.91
2018-12-24T08:50:40.029Z,21.92
2018-12-24T08:51:39.407Z,21.90
2018-12-24T08:52:39.390Z,21.91
2018-12-24T08:53:40.032Z,21.94
2018-12-24T08:54:39.525Z,21.96
2018-12-24T08:55:39.350Z,21.91
2018-12-24T08:56:39.344Z,21.98
2018-12-24T08:57:39.325Z,21.88
2018-12-24T08:58:40.027Z,21.94
2018-12-24T08:59:39.319Z,21.94
2018-12-24T09:00:40.014Z,21.91
2018-12-24T09:01:39.286Z,21.83
2018-12-24T09:02:40.005Z,21.98
2018-12-24T09:03:39.262Z,21.94
2018-12-24T09:04:39.268Z,21.98
2018-12-24T09:05:39.241Z,21.91
2018-12-24T09:06:39.232Z,21.88
2018-12-24T09:07:39.218Z,21.91
2018-12-24T09:08:39.219Z,21.91
2018-12-24T09:09:39.236Z,21.92
2018-12-24T09:10:39.189Z,21.92
2018-12-24T09:11:39.190Z,21.90
2018-12-24T09:12:39.164Z,21.90
2018-12-24T09:13:39.154Z,21.94
2018-12-24T09:14:39.536Z,21.92
2018-12-24T09:15:39.135Z,21.98
2018-12-24T09:16:40.015Z,22.00
2018-12-24T09:17:39.149Z,21.98
2018-12-24T09:18:40.004Z,21.94
2018-12-24T09:19:39.301Z,21.92
2018-12-24T09:20:39.075Z,22.00
2018-12-24T09:21:39.070Z,21.90
2018-12-24T09:22:39.109Z,21.92
2018-12-24T09:23:39.054Z,21.91
2018-12-24T09:24:39.051Z,22.05
2018-12-24T09:25:39.025Z,22.05
2018-12-24T09:26:39.011Z,22.10
2018-12-24T09:27:39.023Z,22.07
2018-12-24T09:28:39.012Z,22.06
2018-12-24T09:29:38.997Z,22.05
2018-12-24T09:30:38.992Z,22.07
2018-12-24T09:31:38.987Z,22.09
2018-12-24T09:32:38.959Z,22.05
2018-12-24T09:33:38.956Z,22.06
2018-12-24T09:34:38.960Z,22.07
2018-12-24T09:35:38.922Z,22.06
2018-12-24T09:36:38.910Z,22.06
2018-12-24T09:37:39.535Z,22.12
2018-12-24T09:38:38.896Z,22.00
2018-12-24T09:39:38.896Z,22.07
2018-12-24T09:40:38.867Z,22.07
2018-12-24T09:41:38.884Z,22.10
2018-12-24T09:42:39.574Z,22.17
2018-12-24T09:43:38.838Z,22.14
2018-12-24T09:44:38.878Z,22.14
2018-12-24T09:45:38.811Z,22.17
2018-12-24T09:46:38.820Z,22.14
2018-12-24T09:47:38.789Z,22.20
2018-12-24T09:48:38.799Z,22.20
2018-12-24T09:49:38.804Z,22.22
2018-12-24T09:50:39.522Z,22.21
2018-12-24T09:51:38.773Z,22.18
2018-12-24T09:52:38.741Z,22.28
2018-12-24T09:53:38.779Z,22.17
2018-12-24T09:54:39.031Z,22.14
2018-12-24T09:55:38.704Z,22.21
2018-12-24T09:56:38.688Z,22.20
2018-12-24T09:57:38.677Z,22.22
2018-12-24T09:58:38.695Z,22.17
2018-12-24T09:59:38.680Z,22.27
2018-12-24T10:00:38.664Z,22.27
2018-12-24T10:01:38.643Z,22.25
2018-12-24T10:02:38.625Z,22.20
2018-12-24T10:03:38.637Z,22.20
2018-12-24T10:04:38.633Z,22.27
2018-12-24T10:05:38.601Z,22.25
2018-12-24T10:06:38.580Z,22.27
2018-12-24T10:07:40.243Z,22.28
2018-12-24T10:08:39.557Z,22.30
2018-12-24T10:09:38.582Z,22.25
2018-12-24T10:10:39.526Z,22.30
2018-12-24T10:11:38.534Z,22.30
2018-12-24T10:12:38.517Z,22.33
2018-12-24T10:13:39.013Z,22.31
2018-12-24T10:14:38.547Z,22.35
2018-12-24T10:15:38.489Z,22.33
2018-12-24T10:16:38.476Z,22.30
2018-12-24T10:17:38.467Z,22.36
2018-12-24T10:18:39.065Z,22.35
2018-12-24T10:19:38.464Z,22.37
2018-12-24T10:20:38.426Z,22.35
2018-12-24T10:21:38.434Z,22.37
2018-12-24T10:22:38.402Z,22.36
2018-12-24T10:23:38.435Z,22.36
2018-12-24T10:24:38.438Z,22.39
2018-12-24T10:25:38.381Z,22.37
2018-12-24T10:26:38.375Z,22.37
2018-12-24T10:27:38.378Z,22.36
2018-12-24T10:28:38.341Z,22.42
2018-12-24T10:29:38.351Z,22.37
2018-12-24T10:30:38.317Z,22.33
2018-12-24T10:31:38.307Z,22.33
2018-12-24T10:32:38.308Z,22.36
2018-12-24T10:33:38.297Z,22.28
2018-12-24T10:34:38.306Z,22.40
2018-12-24T10:35:39.693Z,22.35
2018-12-24T10:36:39.013Z,22.36
2018-12-24T10:37:38.244Z,22.35
2018-12-24T10:38:38.242Z,22.40
2018-12-24T10:39:38.238Z,22.40
2018-12-24T10:40:38.240Z,22.43
2018-12-24T10:41:38.201Z,22.40
2018-12-24T10:42:38.200Z,22.37
2018-12-24T10:43:38.269Z,22.40
2018-12-24T10:44:38.254Z,22.43
2018-12-24T10:45:38.173Z,22.45
2018-12-24T10:46:38.144Z,22.47
2018-12-24T10:47:38.131Z,22.42
2018-12-24T10:48:38.142Z,22.49
2018-12-24T10:49:38.119Z,22.43
2018-12-24T10:50:38.537Z,22.42
2018-12-24T10:51:38.124Z,22.52
2018-12-24T10:52:38.076Z,22.46
2018-12-24T10:53:39.023Z,22.46
2018-12-24T10:54:39.072Z,22.46
2018-12-24T10:55:38.066Z,22.46
2018-12-24T10:56:39.981Z,22.46
2018-12-24T10:57:38.023Z,22.46
2018-12-24T10:58:38.644Z,22.47
2018-12-24T10:59:38.555Z,22.49
2018-12-24T11:00:38.011Z,22.45
2018-12-24T11:01:37.986Z,22.49
2018-12-24T11:02:37.964Z,22.49
2018-12-24T11:03:37.955Z,22.51
2018-12-24T11:04:37.950Z,22.40
2018-12-24T11:05:37.950Z,22.55
2018-12-24T11:06:37.924Z,22.47
2018-12-24T11:07:38.535Z,22.49
2018-12-24T11:08:37.901Z,22.45
2018-12-24T11:09:37.904Z,22.46
2018-12-24T11:10:37.896Z,22.58
2018-12-24T11:11:37.868Z,22.43
2018-12-24T11:12:38.522Z,22.58
2018-12-24T11:13:39.649Z,22.54
2018-12-24T11:14:38.530Z,22.51
2018-12-24T11:15:37.855Z,22.52
2018-12-24T11:16:37.816Z,22.46
2018-12-24T11:17:37.812Z,22.43
2018-12-24T11:18:37.792Z,22.58
2018-12-24T11:19:38.524Z,22.52
2018-12-24T11:20:37.787Z,22.45
2018-12-24T11:21:37.755Z,22.45
2018-12-24T11:22:37.755Z,22.45
2018-12-24T11:23:38.528Z,22.47
2018-12-24T11:24:38.568Z,22.61
2018-12-24T11:25:38.025Z,22.49
2018-12-24T11:26:37.721Z,22.54
2018-12-24T11:27:37.694Z,22.54
2018-12-24T11:28:37.685Z,22.49
2018-12-24T11:29:38.516Z,22.47
2018-12-24T11:30:38.054Z,22.58
2018-12-24T11:31:37.654Z,22.43
2018-12-24T11:32:37.635Z,22.47
2018-12-24T11:33:37.623Z,22.46
2018-12-24T11:34:38.535Z,22.47
2018-12-24T11:35:37.655Z,22.52
2018-12-24T11:36:37.592Z,22.46
2018-12-24T11:37:37.579Z,22.47
2018-12-24T11:38:37.585Z,22.49
2018-12-24T11:39:38.532Z,22.54
2018-12-24T11:40:37.570Z,22.52
2018-12-24T11:41:37.548Z,22.49
2018-12-24T11:42:37.529Z,22.51
2018-12-24T11:43:37.519Z,22.49
2018-12-24T11:44:37.508Z,22.51
2018-12-24T11:45:37.536Z,22.47
2018-12-24T11:46:37.497Z,22.46
2018-12-24T11:47:37.478Z,22.49
2018-12-24T11:48:37.461Z,22.51
2018-12-24T11:49:37.454Z,22.49
2018-12-24T11:50:37.483Z,22.49
2018-12-24T11:51:37.476Z,22.55
2018-12-24T11:52:38.021Z,22.51
2018-12-24T11:53:38.018Z,22.46
2018-12-24T11:54:37.396Z,22.54
2018-12-24T11:55:37.415Z,22.55
2018-12-24T11:56:37.376Z,22.55
2018-12-24T11:57:38.029Z,22.49
2018-12-24T11:58:37.373Z,22.47
2018-12-24T11:59:37.344Z,22.55
2018-12-24T12:00:37.356Z,22.51
2018-12-24T12:01:38.014Z,22.51
2018-12-24T12:02:37.314Z,22.51
2018-12-24T12:03:37.310Z,22.51
2018-12-24T12:04:37.307Z,22.51
2018-12-24T12:05:37.534Z,22.47
2018-12-24T12:06:37.283Z,22.49
2018-12-24T12:07:37.258Z,22.54
2018-12-24T12:08:38.043Z,22.49
2018-12-24T12:09:37.238Z,22.54
2018-12-24T12:10:37.264Z,22.52
2018-12-24T12:11:37.233Z,22.57
2018-12-24T12:12:37.221Z,22.54
2018-12-24T12:13:37.200Z,22.64
2018-12-24T12:14:37.235Z,22.52
2018-12-24T12:15:42.562Z,22.54
2018-12-24T12:16:37.166Z,22.51
2018-12-24T12:17:37.152Z,22.54
2018-12-24T12:18:38.024Z,22.47
2018-12-24T12:19:37.130Z,22.54
2018-12-24T12:20:37.136Z,22.52
2018-12-24T12:21:38.045Z,22.51
2018-12-24T12:22:37.124Z,22.51
2018-12-24T12:23:37.099Z,22.51
2018-12-24T12:24:37.081Z,22.57
2018-12-24T12:25:37.086Z,22.51
2018-12-24T12:26:38.017Z,22.61
2018-12-24T12:27:37.060Z,22.64
2018-12-24T12:28:37.032Z,22.52
2018-12-24T12:29:37.025Z,22.62
2018-12-24T12:30:37.031Z,22.55
2018-12-24T12:31:37.014Z,22.61
2018-12-24T12:32:36.998Z,22.47
2018-12-24T12:33:36.995Z,22.54
2018-12-24T12:34:36.968Z,22.51
2018-12-24T12:35:36.985Z,22.47
2018-12-24T12:36:37.593Z,22.54
2018-12-24T12:37:37.548Z,22.64
2018-12-24T12:38:36.962Z,22.51
2018-12-24T12:39:37.516Z,22.58
2018-12-24T12:40:36.934Z,22.54
2018-12-24T12:41:36.891Z,22.52
2018-12-24T12:42:36.882Z,22.55
2018-12-24T12:43:36.875Z,22.54
2018-12-24T12:44:36.873Z,22.52
2018-12-24T12:45:36.877Z,22.51
2018-12-24T12:46:36.841Z,22.52
2018-12-24T12:47:36.834Z,22.51
2018-12-24T12:48:36.821Z,22.55
2018-12-24T12:49:37.529Z,22.54
2018-12-24T12:50:37.038Z,22.51
2018-12-24T12:51:36.806Z,22.54
2018-12-24T12:52:36.775Z,22.47